createdAt,value
2023-08-02T00:01:00.637Z,93024.81
2023-08-02T00:03:29.066Z,93028.31
2023-08-02T00:06:00.920Z,93034.56
2023-08-02T00:08:30.483Z,93032.28
2023-08-02T00:10:58.550Z,93030.31
2023-08-02T00:13:26.627Z,93034.31
2023-08-02T00:15:54.660Z,93032.38
2023-08-02T00:18:22.586Z,93032.22
2023-08-02T00:20:52.108Z,93035.88
2023-08-02T00:23:20.099Z,93028.22
2023-08-02T00:25:48.111Z,93031.97
2023-08-02T00:28:16.194Z,93031.91
2023-08-02T00:30:46.457Z,93033.38
2023-08-02T00:33:14.667Z,93029.50
2023-08-02T00:35:46.960Z,93035.91
2023-08-02T00:38:15.501Z,93040.91
2023-08-02T00:40:43.647Z,93042.44
2023-08-02T00:43:11.477Z,93035.69
2023-08-02T00:45:40.937Z,93027.63
2023-08-02T00:48:09.235Z,93038.63
2023-08-02T00:50:37.462Z,93021.03
2023-08-02T00:53:05.774Z,93037.97
2023-08-02T00:55:35.184Z,93024.94
2023-08-02T00:58:03.118Z,93021.06
2023-08-02T01:00:32.096Z,93024.94
2023-08-02T01:08:46.909Z,93025.94
2023-08-02T01:11:28.315Z,93033.56
2023-08-02T01:13:58.526Z,93040.72
2023-08-02T01:16:32.564Z,93025.78
2023-08-02T01:19:10.471Z,93028.94
2023-08-02T01:21:39.614Z,93032.28
2023-08-02T01:24:08.877Z,93025.47
2023-08-02T01:26:41.717Z,93020.69
2023-08-02T01:29:14.522Z,93022.41
2023-08-02T01:31:44.035Z,93017.56
2023-08-02T01:34:31.511Z,93010.63
2023-08-02T01:37:00.757Z,93013.22
2023-08-02T01:39:28.898Z,93009.81
2023-08-02T01:41:57.069Z,93006.59
2023-08-02T01:44:25.212Z,93008.13
2023-08-02T01:46:53.196Z,92996.47
2023-08-02T01:49:22.968Z,93004.00
2023-08-02T01:51:51.147Z,93005.56
2023-08-02T01:54:19.141Z,93004.78
2023-08-02T01:56:47.314Z,93022.41
2023-08-02T01:59:15.243Z,93020.38
2023-08-02T02:01:43.394Z,93016.41
2023-08-02T02:04:11.381Z,93014.03
2023-08-02T02:06:39.638Z,93015.81
2023-08-02T02:09:07.756Z,93009.44
2023-08-02T02:11:36.510Z,93019.00
2023-08-02T02:14:04.568Z,93021.69
2023-08-02T02:16:33.387Z,93011.69
2023-08-02T02:19:01.266Z,93023.81
2023-08-02T02:21:29.266Z,93017.56
2023-08-02T02:23:57.908Z,93031.81
2023-08-02T02:26:28.751Z,93033.66
2023-08-02T02:28:56.706Z,93029.75
2023-08-02T02:31:24.745Z,93037.16
2023-08-02T02:33:52.985Z,93040.81
2023-08-02T02:36:20.921Z,93028.59
2023-08-02T02:38:50.334Z,93038.00
2023-08-02T02:41:18.323Z,93036.28
2023-08-02T02:43:46.327Z,93044.06
2023-08-02T02:46:14.296Z,93039.16
2023-08-02T02:50:55.443Z,93043.56
2023-08-02T02:53:25.408Z,93048.88
2023-08-02T02:55:53.509Z,93043.19
2023-08-02T02:58:21.664Z,93057.00
2023-08-02T03:00:49.649Z,93049.41
2023-08-02T03:03:17.805Z,93050.38
2023-08-02T03:05:45.858Z,93056.06
2023-08-02T03:08:13.872Z,93050.03
2023-08-02T03:10:41.822Z,93051.63
2023-08-02T03:13:09.932Z,93050.97
2023-08-02T03:15:37.912Z,93046.53
2023-08-02T03:18:07.814Z,93041.28
2023-08-02T03:20:40.505Z,93041.16
2023-08-02T03:23:09.185Z,93040.59
2023-08-02T03:25:37.381Z,93031.09
2023-08-02T03:28:05.336Z,93040.59
2023-08-02T03:30:33.381Z,93026.06
2023-08-02T03:33:01.374Z,93031.75
2023-08-02T03:35:29.386Z,93036.59
2023-08-02T03:37:57.468Z,93031.47
2023-08-02T03:40:25.963Z,93040.13
2023-08-02T03:42:53.826Z,93044.78
2023-08-02T03:45:21.868Z,93046.78
2023-08-02T03:47:49.845Z,93048.25
2023-08-02T03:50:17.811Z,93051.31
2023-08-02T03:52:46.320Z,93045.16
2023-08-02T03:55:14.228Z,93043.91
2023-08-02T03:57:43.114Z,93044.66
2023-08-02T04:00:11.459Z,93049.41
2023-08-02T04:02:51.959Z,93051.13
2023-08-02T04:05:19.959Z,93038.97
2023-08-02T04:07:48.946Z,93045.22
2023-08-02T04:10:17.053Z,93048.91
2023-08-02T04:12:45.000Z,93048.75
2023-08-02T04:15:13.103Z,93047.66
2023-08-02T04:17:41.249Z,93047.97
2023-08-02T04:20:09.882Z,93050.53
2023-08-02T04:22:38.128Z,93054.72
2023-08-02T04:25:06.413Z,93044.16
2023-08-02T04:27:34.633Z,93047.72
2023-08-02T04:30:02.621Z,93052.63
2023-08-02T04:32:32.775Z,93056.13
2023-08-02T04:35:00.913Z,93047.03
2023-08-02T04:37:30.081Z,93047.97
2023-08-02T04:39:58.084Z,93049.78
2023-08-02T04:42:28.925Z,93036.84
2023-08-02T04:44:56.965Z,93042.75
2023-08-02T04:47:24.939Z,93044.00
2023-08-02T04:49:53.218Z,93042.94
2023-08-02T04:52:22.338Z,93040.59
2023-08-02T04:54:52.035Z,93041.09
2023-08-02T04:57:20.165Z,93049.00
2023-08-02T04:59:48.157Z,93048.84
2023-08-02T05:02:16.867Z,93043.31
2023-08-02T05:04:44.950Z,93040.31
2023-08-02T05:07:12.928Z,93045.25
2023-08-02T05:09:43.859Z,93049.22
2023-08-02T05:12:12.067Z,93052.22
2023-08-02T05:14:40.067Z,93043.81
2023-08-02T05:17:09.222Z,93043.16
2023-08-02T05:19:39.480Z,93042.06
2023-08-02T05:22:07.759Z,93046.19
2023-08-02T05:24:35.795Z,93045.25
2023-08-02T05:27:03.950Z,93050.78
2023-08-02T05:29:32.002Z,93042.34
2023-08-02T05:32:00.295Z,93044.88
2023-08-02T05:34:28.361Z,93039.59
2023-08-02T05:36:56.236Z,93039.44
2023-08-02T05:39:24.524Z,93043.56
2023-08-02T05:41:52.671Z,93051.81
2023-08-02T05:44:20.684Z,93051.44
2023-08-02T05:46:48.778Z,93058.75
2023-08-02T05:49:16.664Z,93057.84
2023-08-02T05:51:45.252Z,93064.00
2023-08-02T05:54:13.386Z,93064.41
2023-08-02T05:56:41.418Z,93069.97
2023-08-02T05:59:09.485Z,93055.66
2023-08-02T06:01:37.551Z,93059.34
2023-08-02T06:04:05.749Z,93059.06
2023-08-02T06:06:33.964Z,93057.59
2023-08-02T06:09:01.964Z,93064.66
2023-08-02T06:11:30.156Z,93070.31
2023-08-02T06:13:59.250Z,93067.19
2023-08-02T06:16:28.271Z,93063.47
2023-08-02T06:18:56.343Z,93063.66
2023-08-02T06:21:27.219Z,93068.72
2023-08-02T06:23:55.407Z,93073.28
2023-08-02T06:26:23.414Z,93071.97
2023-08-02T06:28:51.484Z,93064.13
2023-08-02T06:31:19.752Z,93033.22
2023-08-02T06:33:47.951Z,93067.59
2023-08-02T06:36:15.966Z,93060.72
2023-08-02T06:38:46.703Z,93048.03
2023-08-02T06:41:14.849Z,93057.88
2023-08-02T06:43:43.038Z,93059.25
2023-08-02T06:46:10.853Z,93031.31
2023-08-02T06:48:38.779Z,93058.78
2023-08-02T06:51:06.818Z,93044.88
2023-08-02T06:53:35.152Z,93048.59
2023-08-02T06:56:14.701Z,93050.53
2023-08-02T06:58:44.072Z,93051.41
2023-08-02T07:01:23.182Z,93052.94
2023-08-02T07:17:22.806Z,93045.31
2023-08-02T07:19:50.787Z,93041.41
2023-08-02T07:22:19.241Z,93045.34
2023-08-02T07:24:47.568Z,93031.44
2023-08-02T07:27:15.576Z,93035.13
2023-08-02T07:29:43.680Z,93030.34
2023-08-02T07:32:11.866Z,93040.78
2023-08-02T07:34:39.953Z,93038.44
2023-08-02T07:37:08.091Z,93042.69
2023-08-02T07:39:36.213Z,93042.78
2023-08-02T07:42:04.779Z,93053.34
2023-08-02T07:44:32.780Z,93049.81
2023-08-02T07:47:00.884Z,93043.94
2023-08-02T07:49:28.942Z,93039.13
2023-08-02T07:51:57.470Z,93036.34
2023-08-02T07:54:25.435Z,93038.31
2023-08-02T07:56:53.300Z,93032.75
2023-08-02T07:59:21.298Z,93033.50
2023-08-02T08:01:49.368Z,93037.59
2023-08-02T08:04:17.434Z,93031.72
2023-08-02T08:06:48.846Z,93026.22
2023-08-02T08:09:21.992Z,93030.84
2023-08-02T08:11:50.134Z,93031.88
2023-08-02T08:14:18.212Z,93033.16
2023-08-02T08:16:46.429Z,93036.72
2023-08-02T08:19:15.151Z,93036.03
2023-08-02T08:21:43.420Z,93034.47
2023-08-02T08:24:11.982Z,93032.44
2023-08-02T08:26:40.018Z,93027.25
2023-08-02T08:29:08.080Z,93038.72
2023-08-02T08:31:36.078Z,93038.59
2023-08-02T08:34:04.548Z,93036.56
2023-08-02T08:36:32.748Z,93035.59
2023-08-02T08:39:00.976Z,93031.38
2023-08-02T08:41:29.209Z,93036.16
2023-08-02T08:43:57.263Z,93015.28
2023-08-02T08:46:27.001Z,93033.41
2023-08-02T08:48:55.087Z,93038.50
2023-08-02T08:51:24.001Z,93035.31
2023-08-02T08:53:52.580Z,93036.16
2023-08-02T08:56:27.129Z,93037.44
2023-08-02T08:58:56.699Z,93033.28
2023-08-02T09:01:25.328Z,93033.81
2023-08-02T09:03:53.510Z,93036.13
2023-08-02T09:06:22.745Z,93030.75
2023-08-02T09:08:50.792Z,93027.72
2023-08-02T09:11:18.747Z,93027.38
2023-08-02T09:13:46.759Z,93026.22
2023-08-02T09:16:16.922Z,93036.03
2023-08-02T09:18:49.732Z,93031.72
2023-08-02T09:21:22.969Z,93028.97
2023-08-02T09:23:58.938Z,93036.09
2023-08-02T09:26:26.964Z,93028.19
2023-08-02T09:29:02.184Z,93027.34
2023-08-02T09:31:32.382Z,93024.97
2023-08-02T09:34:01.062Z,93024.34
2023-08-02T09:36:32.609Z,93019.66
2023-08-02T09:39:20.646Z,93020.50
2023-08-02T09:42:00.105Z,93021.72
2023-08-02T09:44:30.139Z,93012.25
2023-08-02T09:47:10.125Z,93021.97
2023-08-02T09:49:40.248Z,93028.22
2023-08-02T09:52:11.889Z,93023.63
2023-08-02T09:54:39.944Z,93014.97
2023-08-02T09:57:08.197Z,93016.88
2023-08-02T09:59:38.419Z,93027.03
2023-08-02T10:02:07.108Z,93024.31
2023-08-02T10:04:36.312Z,93014.50
2023-08-02T10:07:10.145Z,93018.41
2023-08-02T10:09:39.565Z,93012.31
2023-08-02T10:12:15.146Z,93011.53
2023-08-02T10:14:43.700Z,93012.66
2023-08-02T10:17:13.055Z,93016.78
2023-08-02T10:19:42.173Z,93014.16
2023-08-02T10:22:12.726Z,93017.75
2023-08-02T10:24:41.212Z,93015.03
2023-08-02T10:27:10.348Z,93003.69
2023-08-02T10:29:40.487Z,93010.78
2023-08-02T10:32:20.722Z,93002.38
2023-08-02T10:34:51.483Z,93002.69
2023-08-02T10:37:22.986Z,93001.53
2023-08-02T10:39:55.133Z,92999.53
2023-08-02T10:42:25.828Z,92999.81
2023-08-02T10:44:56.790Z,93001.81
2023-08-02T10:47:32.942Z,93001.53
2023-08-02T10:50:03.129Z,93001.97
2023-08-02T10:52:37.702Z,93003.97
2023-08-02T10:55:11.744Z,93000.84
2023-08-02T10:58:06.707Z,93000.16
2023-08-02T11:00:41.311Z,92998.97
2023-08-02T11:03:09.514Z,92995.06
2023-08-02T11:05:38.834Z,92997.00
2023-08-02T11:08:11.139Z,93009.59
2023-08-02T11:10:49.081Z,92989.59
2023-08-02T11:13:18.349Z,92999.34
2023-08-02T11:15:47.935Z,92998.16
2023-08-02T11:18:31.271Z,92985.97
2023-08-02T11:21:14.327Z,93002.50
2023-08-02T11:26:21.335Z,92996.66
2023-08-02T11:28:51.371Z,92997.44
2023-08-02T11:31:23.619Z,92999.41
2023-08-02T11:33:51.744Z,92992.69
2023-08-02T11:36:20.140Z,92996.19
2023-08-02T11:38:48.551Z,92995.47
2023-08-02T11:41:19.553Z,92998.50
2023-08-02T11:43:49.338Z,93005.28
2023-08-02T11:46:27.778Z,93002.53
2023-08-02T11:49:08.264Z,92993.88
2023-08-02T11:51:45.501Z,92988.72
2023-08-02T11:54:14.130Z,92992.69
2023-08-02T11:56:43.011Z,92993.09
2023-08-02T11:59:14.908Z,92974.63
2023-08-02T12:01:43.770Z,92978.97
2023-08-02T12:04:12.338Z,92980.13
2023-08-02T12:06:49.903Z,92977.81
2023-08-02T12:09:20.089Z,92983.72
2023-08-02T12:11:55.879Z,92968.00
2023-08-02T12:14:30.729Z,92966.84
2023-08-02T12:17:00.018Z,92975.09
2023-08-02T12:19:42.699Z,92968.78
2023-08-02T12:22:13.532Z,92973.16
2023-08-02T12:24:41.799Z,92963.66
2023-08-02T12:27:12.832Z,92969.97
2023-08-02T12:29:41.480Z,92967.22
2023-08-02T12:32:28.957Z,92967.22
2023-08-02T12:35:11.871Z,92949.56
2023-08-02T12:37:41.206Z,92955.03
2023-08-02T12:40:09.976Z,92951.53
2023-08-02T12:42:48.992Z,92951.50
2023-08-02T12:45:27.172Z,92961.72
2023-08-02T12:47:55.721Z,92958.22
2023-08-02T12:50:25.511Z,92948.81
2023-08-02T12:52:56.389Z,92954.69
2023-08-02T12:55:24.953Z,92949.16
2023-08-02T12:57:53.757Z,92947.59
2023-08-02T13:00:22.497Z,92954.31
2023-08-02T13:02:51.115Z,92939.75
2023-08-02T13:16:09.108Z,92938.94
2023-08-02T13:18:37.227Z,92939.75
2023-08-02T13:21:05.330Z,92931.50
2023-08-02T13:23:33.343Z,92927.94
2023-08-02T13:26:01.817Z,92933.84
2023-08-02T13:28:30.254Z,92918.13
2023-08-02T13:31:00.701Z,92927.56
2023-08-02T13:33:29.671Z,92924.78
2023-08-02T13:35:57.864Z,92916.94
2023-08-02T13:38:26.550Z,92918.91
2023-08-02T13:40:54.831Z,92924.41
2023-08-02T13:43:23.208Z,92919.31
2023-08-02T13:45:51.966Z,92931.50
2023-08-02T13:48:20.589Z,92920.84
2023-08-02T13:50:48.837Z,92922.81
2023-08-02T13:53:17.210Z,92920.06
2023-08-02T13:55:45.099Z,92923.25
2023-08-02T13:58:13.354Z,92921.69
2023-08-02T14:00:41.466Z,92916.56
2023-08-02T14:03:09.671Z,92920.88
2023-08-02T14:05:38.572Z,92911.06
2023-08-02T14:08:07.046Z,92922.03
2023-08-02T14:10:35.134Z,92917.34
2023-08-02T14:13:03.191Z,92923.63
2023-08-02T14:15:31.430Z,92928.34
2023-08-02T14:18:00.272Z,92927.53
2023-08-02T14:20:28.915Z,92933.44
2023-08-02T14:22:57.410Z,92934.59
2023-08-02T14:25:26.210Z,92930.72
2023-08-02T14:27:55.000Z,92929.09
2023-08-02T14:30:23.597Z,92918.88
2023-08-02T14:32:52.226Z,92926.75
2023-08-02T14:35:21.190Z,92917.31
2023-08-02T14:37:49.702Z,92910.25
2023-08-02T14:40:18.394Z,92909.06
2023-08-02T14:42:47.932Z,92909.03
2023-08-02T14:45:16.143Z,92900.41
2023-08-02T14:47:47.250Z,92896.88
2023-08-02T14:50:15.954Z,92903.53
2023-08-02T14:52:44.891Z,92902.78
2023-08-02T14:55:13.682Z,92912.56
2023-08-02T14:57:42.898Z,92913.28
2023-08-02T15:00:12.080Z,92910.16
2023-08-02T15:02:40.932Z,92914.50
2023-08-02T15:05:09.509Z,92913.75
2023-08-02T15:07:38.274Z,92913.69
2023-08-02T15:10:07.954Z,92909.75
2023-08-02T15:12:36.667Z,92912.09
2023-08-02T15:15:06.300Z,92913.66
2023-08-02T15:17:35.126Z,92917.19
2023-08-02T15:20:04.400Z,92914.81
2023-08-02T15:22:33.384Z,92917.16
2023-08-02T15:25:02.379Z,92912.84
2023-08-02T15:27:31.138Z,92916.72
2023-08-02T15:30:02.384Z,92919.06
2023-08-02T15:32:31.361Z,92913.16
2023-08-02T15:35:00.638Z,92913.56
2023-08-02T15:37:32.409Z,92908.84
2023-08-02T15:40:01.032Z,92907.28
2023-08-02T15:42:31.170Z,92907.66
2023-08-02T15:45:01.856Z,92895.41
2023-08-02T15:47:35.611Z,92905.25
2023-08-02T15:50:04.340Z,92907.97
2023-08-02T15:52:45.108Z,92910.66
2023-08-02T15:55:14.311Z,92920.81
2023-08-02T15:57:43.751Z,92923.50
2023-08-02T16:00:13.175Z,92929.66
2023-08-02T16:02:43.001Z,92941.19
2023-08-02T16:05:12.928Z,92937.88
2023-08-02T16:07:41.579Z,92941.84
2023-08-02T16:10:10.659Z,92938.59
2023-08-02T16:12:39.314Z,92933.19
2023-08-02T16:15:08.244Z,92946.19
2023-08-02T16:17:36.678Z,92944.59
2023-08-02T16:20:05.509Z,92954.88
2023-08-02T16:22:33.578Z,92951.66
2023-08-02T16:25:02.019Z,92946.28
2023-08-02T16:27:30.198Z,92948.97
2023-08-02T16:29:58.236Z,92956.19
2023-08-02T16:32:26.122Z,92951.19
2023-08-02T16:34:54.347Z,92959.03
2023-08-02T16:37:23.029Z,92958.84
2023-08-02T16:39:51.331Z,92956.09
2023-08-02T16:42:20.339Z,92953.91
2023-08-02T16:44:49.180Z,92957.59
2023-08-02T16:47:17.777Z,92957.09
2023-08-02T16:49:46.305Z,92957.78
2023-08-02T16:52:14.877Z,92966.31
2023-08-02T16:54:43.594Z,92967.16
2023-08-02T16:57:12.322Z,92978.91
2023-08-02T16:59:41.149Z,92981.69
2023-08-02T17:02:09.807Z,92979.22
2023-08-02T17:04:37.964Z,92992.84
2023-08-02T17:07:07.258Z,92987.78
2023-08-02T17:09:37.233Z,92993.66
2023-08-02T17:12:06.567Z,92995.88
2023-08-02T17:14:35.166Z,93001.44
2023-08-02T17:17:04.736Z,92993.34
2023-08-02T17:19:34.105Z,93007.00
2023-08-02T17:22:02.726Z,93001.88
2023-08-02T17:24:31.670Z,93005.38
2023-08-02T17:27:00.428Z,93012.00
2023-08-02T17:29:29.057Z,93011.16
2023-08-02T17:31:58.574Z,93015.38
2023-08-02T17:34:26.969Z,93015.34
2023-08-02T17:36:55.744Z,93013.34
2023-08-02T17:39:23.870Z,93009.38
2023-08-02T17:41:52.100Z,93015.88
2023-08-02T17:44:20.291Z,93022.81
2023-08-02T17:46:49.821Z,93019.66
2023-08-02T17:49:17.904Z,93022.25
2023-08-02T17:51:46.265Z,93028.06
2023-08-02T17:54:14.640Z,93021.25
2023-08-02T17:56:43.300Z,93018.13
2023-08-02T17:59:14.190Z,93032.75
2023-08-02T18:01:42.887Z,93038.25
2023-08-02T18:04:14.514Z,93040.50
2023-08-02T18:06:45.901Z,93037.75
2023-08-02T18:09:14.460Z,93054.47
2023-08-02T18:11:42.929Z,93051.34
2023-08-02T18:14:11.710Z,93055.38
2023-08-02T18:16:40.432Z,93061.38
2023-08-02T18:19:09.037Z,93067.25
2023-08-02T18:21:37.526Z,93063.09
2023-08-02T18:24:06.244Z,93067.16
2023-08-02T18:26:35.097Z,93074.63
2023-08-02T18:29:04.040Z,93078.16
2023-08-02T18:31:32.802Z,93076.25
2023-08-02T18:34:01.643Z,93078.16
2023-08-02T18:36:30.481Z,93086.34
2023-08-02T18:39:02.640Z,93081.16
2023-08-02T18:41:31.225Z,93081.78
2023-08-02T18:44:00.034Z,93079.56
2023-08-02T18:46:28.621Z,93082.63
2023-08-02T18:48:57.274Z,93084.91
2023-08-02T18:51:26.458Z,93089.25
2023-08-02T18:53:55.220Z,93086.75
2023-08-02T18:56:24.857Z,93098.72
2023-08-02T18:58:53.793Z,93091.78
2023-08-02T19:01:22.394Z,93092.44
2023-08-02T19:03:54.967Z,93100.78
2023-08-02T19:06:23.629Z,93105.78
2023-08-02T19:08:52.449Z,93101.50
2023-08-02T19:11:23.818Z,93111.06
2023-08-02T19:13:53.429Z,93109.13
2023-08-02T19:16:28.135Z,93103.56
2023-08-02T19:27:15.829Z,93114.88
2023-08-02T19:29:45.159Z,93116.53
2023-08-02T19:32:21.546Z,93112.91
2023-08-02T19:34:52.981Z,93123.53
2023-08-02T19:37:29.859Z,93122.28
2023-08-02T19:39:58.573Z,93120.94
2023-08-02T19:42:27.150Z,93120.31
2023-08-02T19:44:55.737Z,93120.75
2023-08-02T19:47:30.183Z,93131.66
2023-08-02T19:50:01.836Z,93135.06
2023-08-02T19:52:32.270Z,93131.19
2023-08-02T19:55:02.683Z,93128.81
2023-08-02T19:57:44.386Z,93137.97
2023-08-02T20:00:16.420Z,93148.78
2023-08-02T20:02:45.538Z,93145.69
2023-08-02T20:05:53.308Z,93144.69
2023-08-02T20:08:23.455Z,93145.81
2023-08-02T20:11:07.870Z,93150.69
2023-08-02T20:13:52.640Z,93155.31
2023-08-02T20:16:24.664Z,93156.59
2023-08-02T20:18:55.338Z,93149.31
2023-08-02T20:21:25.270Z,93162.13
2023-08-02T20:24:03.836Z,93165.88
2023-08-02T20:26:32.904Z,93170.13
2023-08-02T20:29:01.391Z,93169.31
2023-08-02T20:31:37.883Z,93166.22
2023-08-02T20:34:11.497Z,93172.41
2023-08-02T20:36:41.876Z,93156.88
2023-08-02T20:39:18.279Z,93169.66
2023-08-02T20:41:49.426Z,93168.19
2023-08-02T20:44:24.750Z,93171.25
2023-08-02T20:46:53.209Z,93168.34
2023-08-02T20:49:22.174Z,93169.13
2023-08-02T20:51:50.941Z,93174.19
2023-08-02T20:54:19.990Z,93172.72
2023-08-02T20:56:49.143Z,93175.44
2023-08-02T20:59:18.978Z,93184.47
2023-08-02T21:01:47.811Z,93183.88
2023-08-02T21:04:17.512Z,93189.34
2023-08-02T21:07:00.954Z,93196.06
2023-08-02T21:09:34.325Z,93189.09
2023-08-02T21:12:03.818Z,93192.06
2023-08-02T21:14:31.788Z,93197.47
2023-08-02T21:17:02.726Z,93193.06
2023-08-02T21:19:37.269Z,93196.75
2023-08-02T21:22:06.687Z,93202.41
2023-08-02T21:24:34.869Z,93202.16
2023-08-02T21:27:07.057Z,93196.84
2023-08-02T21:29:35.544Z,93200.75
2023-08-02T21:32:04.146Z,93198.69
2023-08-02T21:34:32.288Z,93207.75
2023-08-02T21:37:02.614Z,93213.28
2023-08-02T21:39:30.815Z,93209.59
2023-08-02T21:42:00.508Z,93201.75
2023-08-02T21:44:30.831Z,93206.69
2023-08-02T21:47:00.732Z,93203.38
2023-08-02T21:49:28.841Z,93209.41
2023-08-02T21:51:56.842Z,93203.31
2023-08-02T21:54:24.783Z,93204.00
2023-08-02T21:56:55.847Z,93204.47
2023-08-02T21:59:23.919Z,93204.97
2023-08-02T22:01:51.938Z,93212.03
2023-08-02T22:04:20.108Z,93199.91
2023-08-02T22:08:50.054Z,93206.66
2023-08-02T22:11:19.057Z,93212.84
2023-08-02T22:13:48.450Z,93199.03
2023-08-02T22:16:18.335Z,93208.88
2023-08-02T22:18:47.077Z,93200.09
2023-08-02T22:21:14.979Z,93203.94
2023-08-02T22:23:44.041Z,93207.47
2023-08-02T22:26:12.249Z,93210.09
2023-08-02T22:28:40.273Z,93209.59
2023-08-02T22:31:08.304Z,93206.63
2023-08-02T22:33:36.410Z,93210.41
2023-08-02T22:36:04.934Z,93213.13
2023-08-02T22:38:47.876Z,93204.44
2023-08-02T22:41:17.840Z,93197.84
2023-08-02T22:43:47.093Z,93208.06
2023-08-02T22:46:15.247Z,93202.66
2023-08-02T22:49:30.779Z,93204.53
2023-08-02T22:51:32.493Z,93202.16
2023-08-02T22:54:00.602Z,93204.88
2023-08-02T22:56:29.381Z,93201.03
2023-08-02T22:59:01.409Z,93209.38
2023-08-02T23:01:34.051Z,93199.16
2023-08-02T23:04:02.446Z,93203.31
2023-08-02T23:06:30.972Z,93188.50
2023-08-02T23:08:58.970Z,93203.13
2023-08-02T23:11:26.888Z,93194.41
2023-08-02T23:13:55.458Z,93198.09
2023-08-02T23:16:24.461Z,93201.63
2023-08-02T23:18:58.283Z,93205.75
2023-08-02T23:21:33.226Z,93199.19
2023-08-02T23:24:01.712Z,93201.44
2023-08-02T23:26:29.952Z,93193.50
2023-08-02T23:29:01.812Z,93193.00
2023-08-02T23:31:30.947Z,93188.25
2023-08-02T23:34:00.988Z,93198.44
2023-08-02T23:36:30.160Z,93190.00
2023-08-02T23:38:58.396Z,93200.53
2023-08-02T23:41:28.867Z,93193.03
2023-08-02T23:43:56.951Z,93197.81
2023-08-02T23:46:24.921Z,93185.38
2023-08-02T23:48:52.899Z,93198.28
2023-08-02T23:51:20.914Z,93195.28
2023-08-02T23:53:48.901Z,93186.03
2023-08-02T23:56:16.936Z,93190.78
2023-08-02T23:58:44.986Z,93194.63
